Rechercher aéroport 
image banner adimage banner adimage banner ad
image banner ad

CA77 - Ridgecrest Community Hospital

Situé à Ridgecrest, United States

ICAO - CA77, IATA -

Données fournies par Airmate  

Information générale

Coordonnées: N35°38'25" W117°40'20"
Élévation : 2290 feet MSL.
Variation magnétique : 14° East
Voir autres Aéroports à California

Données opérationnelles

Special qualification required
Heure actuelle UTC:
Heure actuelle locale:
METAR: KNID 292356Z 00000KT 10SM FEW110 BKN270 41/08 A2983 RMK AO2 SLP073 T04060083 10406 20356 56025 $
TAF: TAF COR KNID 2923/3023 VRB05KT 9999 FEW100 SCT160 BKN250 QNH2979INS TS OMTNS TEMPO 2923/3003 19012G22KT 9999 SCT100 BKN250 WND 160V230 BECMG 3003/3005 30009KT 9999 FEW110 SCT170 BKN250 QNH2983INS BECMG 3014/3016 01007KT 9999 FEW150 SCT250 QNH2991INS LAST NO AMDS AFT 3005 NEXT 3015 T25/3013Z T42/3023Z COR 2310
Voir NOTAMs / SUP AIP / TFR affectant cet aéroport [VIEW]
Fréquences de communication: [VIEW]

Pistes:

Coordonnées de l'aéroport

Adresse: Ridgecrest United States

Vue satellite de CA77